Time;durP1;ratioP1;P1;durP2;ratioP2;P2;SDS_P1;SDS_P2;PMS_P1;PMS_P2;Temp;Humidity;BMP_temperature;BMP_pressure;BME280_temperature;BME280_humidity;BME280_pressure;Samples;Min_cycle;Max_cycle;Signal;HPM_P1;HPM_P2
2022/09/18 00:00:34;;;;;;;;;1.00;1.00;;;;;;;;4900982;28;45862;-68
2022/09/18 00:03:00;;;;;;;;;1.75;1.75;;;;;;;;4900867;28;45416;-68
2022/09/18 00:05:25;;;;;;;;;1.25;0.00;;;;;;;;4900962;28;45442;-68
2022/09/18 00:07:50;;;;;;;;;2.00;2.00;;;;;;;;4900123;29;46492;-68
2022/09/18 00:10:15;;;;;;;;;1.33;1.33;;;;;;;;4901345;29;45360;-68
2022/09/18 00:12:40;;;;;;;;;1.25;1.25;;;;;;;;4901297;29;45363;-68
2022/09/18 00:15:06;;;;;;;;;3.00;1.00;;;;;;;;4890918;29;45504;-68
2022/09/18 00:17:32;;;;;;;;;1.75;1.00;;;;;;;;4900303;28;47389;-67
2022/09/18 00:19:57;;;;;;;;;2.00;1.00;;;;;;;;4900835;28;45703;-67
2022/09/18 00:22:23;;;;;;;;;1.25;1.25;;;;;;;;4893382;29;45325;-68
2022/09/18 00:24:48;;;;;;;;;2.50;1.75;;;;;;;;4920640;28;45556;-67
2022/09/18 00:27:13;;;;;;;;;1.00;1.00;;;;;;;;4918977;28;45569;-68
2022/09/18 00:29:38;;;;;;;;;2.00;1.00;;;;;;;;4919911;28;45489;-68
2022/09/18 00:32:03;;;;;;;;;4.00;2.00;;;;;;;;4920055;28;45529;-67
2022/09/18 00:34:29;;;;;;;;;3.00;2.00;;;;;;;;4919870;28;45358;-68
2022/09/18 00:36:54;;;;;;;;;4.00;2.00;;;;;;;;4919327;28;46410;-67
2022/09/18 00:39:19;;;;;;;;;2.00;2.00;;;;;;;;4919718;28;45475;-67
2022/09/18 00:41:44;;;;;;;;;2.00;2.00;;;;;;;;4919784;28;45325;-68
2022/09/18 00:44:28;;;;;;;;;3.67;2.00;;;;;;;;4920115;28;45540;-68
2022/09/18 00:46:55;;;;;;;;;1.00;1.00;;;;;;;;4901942;28;46210;-68
2022/09/18 00:49:23;;;;;;;;;2.67;2.67;;;;;;;;4919574;28;45487;-68
2022/09/18 00:51:50;;;;;;;;;2.00;2.00;;;;;;;;4919796;28;45515;-67
2022/09/18 00:54:28;;;;;;;;;1.33;1.00;;;;;;;;4919822;28;45802;-67
2022/09/18 00:56:58;;;;;;;;;3.00;3.00;;;;;;;;4919049;28;47250;-68
2022/09/18 00:59:25;;;;;;;;;1.00;1.00;;;;;;;;4919271;28;45317;-67
2022/09/18 01:01:51;;;;;;;;;1.50;1.00;;;;;;;;4919413;28;45480;-68
2022/09/18 01:04:16;;;;;;;;;2.00;2.00;;;;;;;;4919696;28;45829;-68
2022/09/18 01:06:46;;;;;;;;;3.00;3.00;;;;;;;;4918656;28;45411;-68
2022/09/18 01:09:11;;;;;;;;;3.00;1.50;;;;;;;;4919600;28;45348;-67
2022/09/18 01:11:44;;;;;;;;;2.67;2.00;;;;;;;;4919468;28;45373;-67
2022/09/18 01:14:12;;;;;;;;;3.25;2.00;;;;;;;;4919668;28;45436;-68
2022/09/18 01:16:44;;;;;;;;;2.00;1.00;;;;;;;;4919070;28;45372;-67
2022/09/18 01:19:27;;;;;;;;;1.00;1.00;;;;;;;;4918800;28;45491;-67
2022/09/18 01:21:52;;;;;;;;;5.25;1.00;;;;;;;;4914108;28;45632;-68
2022/09/18 01:24:36;;;;;;;;;1.00;1.00;;;;;;;;4900527;29;45353;-68
2022/09/18 01:27:03;;;;;;;;;2.25;0.00;;;;;;;;4899460;28;46262;-67
2022/09/18 01:29:40;;;;;;;;;1.25;1.25;;;;;;;;4899648;29;45408;-67
2022/09/18 01:32:14;;;;;;;;;1.00;1.00;;;;;;;;4899754;29;45411;-68
2022/09/18 01:34:46;;;;;;;;;2.50;1.00;;;;;;;;4900418;29;45429;-68
2022/09/18 01:37:43;;;;;;;;;2.00;1.00;;;;;;;;4900143;29;45613;-67
2022/09/18 01:40:09;;;;;;;;;1.00;1.00;;;;;;;;4821773;29;45639;-67
2022/09/18 01:42:35;;;;;;;;;0.50;0.50;;;;;;;;4823045;29;45667;-67
2022/09/18 01:45:03;;;;;;;;;3.50;1.00;;;;;;;;4823395;29;45470;-67
2022/09/18 01:47:33;;;;;;;;;1.50;1.50;;;;;;;;4822920;29;45843;-67
2022/09/18 01:49:59;;;;;;;;;1.75;1.00;;;;;;;;4822359;29;45718;-67
2022/09/18 01:52:43;;;;;;;;;2.00;1.67;;;;;;;;4823101;29;45768;-67
2022/09/18 01:55:11;;;;;;;;;1.00;0.75;;;;;;;;4823334;29;45637;-67
2022/09/18 01:57:43;;;;;;;;;4.00;1.67;;;;;;;;4821875;29;46472;-67
2022/09/18 02:00:10;;;;;;;;;2.00;1.00;;;;;;;;4822315;29;45338;-68
2022/09/18 02:02:41;;;;;;;;;1.33;1.00;;;;;;;;4822669;29;45407;-67
2022/09/18 02:05:07;;;;;;;;;1.00;1.00;;;;;;;;4823010;29;45509;-67
2022/09/18 02:07:59;;;;;;;;;1.33;1.00;;;;;;;;4822591;29;46609;-67
2022/09/18 02:10:25;;;;;;;;;1.00;1.00;;;;;;;;4820291;29;45497;-68
2022/09/18 02:12:53;;;;;;;;;2.67;2.00;;;;;;;;4821994;29;45530;-67
2022/09/18 02:15:22;;;;;;;;;2.00;2.00;;;;;;;;4846969;29;45577;-67
2022/09/18 02:17:53;;;;;;;;;0.00;0.00;;;;;;;;4899153;29;46334;-67
2022/09/18 02:20:20;;;;;;;;;2.00;0.00;;;;;;;;4899056;29;45356;-67
2022/09/18 02:22:47;;;;;;;;;2.00;1.00;;;;;;;;4913821;28;45439;-67
2022/09/18 02:25:16;;;;;;;;;4.33;1.00;;;;;;;;4918681;28;45474;-68
2022/09/18 02:27:41;;;;;;;;;2.50;1.00;;;;;;;;4917443;28;46561;-68
2022/09/18 02:30:07;;;;;;;;;1.00;1.00;;;;;;;;4916789;28;46771;-67
2022/09/18 02:32:34;;;;;;;;;2.00;2.00;;;;;;;;4918315;28;45444;-67
2022/09/18 02:34:59;;;;;;;;;2.00;1.00;;;;;;;;4918248;28;45511;-67
2022/09/18 02:37:25;;;;;;;;;0.75;0.50;;;;;;;;4918052;28;46458;-67
2022/09/18 02:40:03;;;;;;;;;1.00;1.00;;;;;;;;4920312;28;45409;-67
2022/09/18 02:42:28;;;;;;;;;1.67;1.67;;;;;;;;4921283;28;45342;-68
2022/09/18 02:45:06;;;;;;;;;3.00;1.67;;;;;;;;4920617;28;45448;-68
2022/09/18 02:47:55;;;;;;;;;0.75;0.75;;;;;;;;4921296;28;46450;-67
2022/09/18 02:50:38;;;;;;;;;1.00;1.00;;;;;;;;4825421;29;45469;-68
2022/09/18 02:53:19;;;;;;;;;2.67;1.33;;;;;;;;4825351;29;45491;-67
2022/09/18 02:55:45;;;;;;;;;1.50;1.00;;;;;;;;4825546;29;45569;-67
2022/09/18 02:58:17;;;;;;;;;2.00;2.00;;;;;;;;4825279;29;46022;-67
2022/09/18 03:00:43;;;;;;;;;1.00;1.00;;;;;;;;4825202;29;45397;-67
2022/09/18 03:03:17;;;;;;;;;3.00;2.33;;;;;;;;4824135;29;45520;-68
2022/09/18 03:05:43;;;;;;;;;3.67;2.00;;;;;;;;4825219;29;45388;-67
2022/09/18 03:08:09;;;;;;;;;3.00;1.33;;;;;;;;4824782;29;46539;-68
2022/09/18 03:10:34;;;;;;;;;1.67;1.00;;;;;;;;4825099;29;45371;-67
2022/09/18 03:13:00;;;;;;;;;2.00;2.00;;;;;;;;4824877;29;45361;-67
2022/09/18 03:15:25;;;;;;;;;2.33;2.33;;;;;;;;4825562;29;45648;-67
2022/09/18 03:17:50;;;;;;;;;3.67;1.00;;;;;;;;4823781;29;46383;-68
2022/09/18 03:20:16;;;;;;;;;3.00;1.33;;;;;;;;4824792;29;45570;-67
2022/09/18 03:22:41;;;;;;;;;1.33;1.33;;;;;;;;4824676;29;45465;-67
2022/09/18 03:25:06;;;;;;;;;4.00;2.00;;;;;;;;4825092;29;45696;-67
2022/09/18 03:27:32;;;;;;;;;1.00;1.00;;;;;;;;4865850;29;46584;-68
2022/09/18 03:29:57;;;;;;;;;3.33;2.00;;;;;;;;4901502;29;45377;-68
2022/09/18 03:32:22;;;;;;;;;2.00;2.00;;;;;;;;4901702;29;45361;-67
2022/09/18 03:34:47;;;;;;;;;1.00;1.00;;;;;;;;4910633;28;45527;-67
2022/09/18 03:37:12;;;;;;;;;1.00;1.00;;;;;;;;4920843;28;45369;-67
2022/09/18 03:39:38;;;;;;;;;2.00;1.00;;;;;;;;4920503;28;45389;-67
2022/09/18 03:42:03;;;;;;;;;0.00;0.00;;;;;;;;4920635;28;45364;-68
2022/09/18 03:44:28;;;;;;;;;3.00;1.00;;;;;;;;4920624;28;45521;-67
2022/09/18 03:46:53;;;;;;;;;1.33;1.33;;;;;;;;4920752;28;46161;-68
2022/09/18 03:49:19;;;;;;;;;2.67;2.00;;;;;;;;4920063;28;45368;-67
2022/09/18 03:51:44;;;;;;;;;1.00;1.00;;;;;;;;4918827;28;45302;-68
2022/09/18 03:54:09;;;;;;;;;2.33;1.00;;;;;;;;4920336;28;45389;-68
2022/09/18 03:56:37;;;;;;;;;1.67;1.33;;;;;;;;4920306;28;46681;-68
2022/09/18 03:59:02;;;;;;;;;2.00;2.00;;;;;;;;4920351;28;45320;-68
2022/09/18 04:01:28;;;;;;;;;1.00;1.00;;;;;;;;4920407;28;45323;-68
2022/09/18 04:03:53;;;;;;;;;2.67;1.00;;;;;;;;4920466;28;45337;-68
2022/09/18 04:06:18;;;;;;;;;2.67;1.00;;;;;;;;4919707;28;47282;-68
2022/09/18 04:08:44;;;;;;;;;3.00;1.00;;;;;;;;4918983;28;45676;-67
2022/09/18 04:11:09;;;;;;;;;3.00;2.00;;;;;;;;4920177;28;45318;-68
2022/09/18 04:13:34;;;;;;;;;3.50;2.00;;;;;;;;4920495;28;45692;-68
2022/09/18 04:15:59;;;;;;;;;1.33;1.33;;;;;;;;4919595;28;45508;-67
2022/09/18 04:18:25;;;;;;;;;1.67;1.67;;;;;;;;4919916;28;45475;-68
2022/09/18 04:20:50;;;;;;;;;2.33;1.00;;;;;;;;4920124;28;45334;-68
2022/09/18 04:23:16;;;;;;;;;2.67;1.67;;;;;;;;4901770;28;45541;-68
2022/09/18 04:25:42;;;;;;;;;1.33;1.00;;;;;;;;4899467;28;47322;-68
2022/09/18 04:28:07;;;;;;;;;3.00;1.00;;;;;;;;4900044;29;45408;-67
2022/09/18 04:30:32;;;;;;;;;8.00;5.00;;;;;;;;4900754;28;45448;-67
2022/09/18 04:32:58;;;;;;;;;2.00;2.00;;;;;;;;4901076;29;45455;-68
2022/09/18 04:35:23;;;;;;;;;4.00;4.00;;;;;;;;4900852;29;46212;-68
2022/09/18 04:37:48;;;;;;;;;2.00;1.00;;;;;;;;4900227;28;45377;-68
2022/09/18 04:40:14;;;;;;;;;6.67;6.00;;;;;;;;4900876;29;45458;-67
2022/09/18 04:42:39;;;;;;;;;2.00;2.00;;;;;;;;4899600;29;45431;-68
2022/09/18 04:45:04;;;;;;;;;3.67;2.00;;;;;;;;4900506;29;46470;-67
2022/09/18 04:47:30;;;;;;;;;1.25;1.25;;;;;;;;4900177;28;45444;-68
2022/09/18 04:49:55;;;;;;;;;3.00;1.25;;;;;;;;4900426;28;45337;-68
2022/09/18 04:52:21;;;;;;;;;3.00;1.00;;;;;;;;4900854;29;45383;-68
2022/09/18 04:54:46;;;;;;;;;2.67;1.00;;;;;;;;4900398;28;45790;-68
2022/09/18 04:57:11;;;;;;;;;7.33;5.00;;;;;;;;4900268;29;45531;-68
2022/09/18 04:59:37;;;;;;;;;2.00;2.00;;;;;;;;4899169;29;45333;-68
2022/09/18 05:02:02;;;;;;;;;2.67;2.67;;;;;;;;4899788;28;45261;-67
2022/09/18 05:04:27;;;;;;;;;3.67;2.00;;;;;;;;4900211;29;47326;-68
2022/09/18 05:06:52;;;;;;;;;10.00;9.33;;;;;;;;4900256;29;45463;-67
2022/09/18 05:09:17;;;;;;;;;2.00;2.00;;;;;;;;4900279;29;45788;-67
2022/09/18 05:11:43;;;;;;;;;4.33;2.00;;;;;;;;4900534;29;45519;-67
2022/09/18 05:14:08;;;;;;;;;1.00;1.00;;;;;;;;4899224;28;46945;-68
2022/09/18 05:16:33;;;;;;;;;1.00;1.00;;;;;;;;4900154;29;45304;-67
2022/09/18 05:18:59;;;;;;;;;3.00;1.00;;;;;;;;4898569;29;45476;-67
2022/09/18 05:21:24;;;;;;;;;3.00;1.67;;;;;;;;4900335;28;45432;-68
2022/09/18 05:23:49;;;;;;;;;1.00;1.00;;;;;;;;4899944;29;46341;-68
2022/09/18 05:26:14;;;;;;;;;1.00;1.00;;;;;;;;4900147;29;45336;-67
2022/09/18 05:28:40;;;;;;;;;1.25;1.25;;;;;;;;4899002;29;45580;-67
2022/09/18 05:31:05;;;;;;;;;3.00;1.00;;;;;;;;4900357;28;45449;-67
2022/09/18 05:33:30;;;;;;;;;1.33;0.33;;;;;;;;4898893;29;45379;-68
2022/09/18 05:35:56;;;;;;;;;4.00;2.00;;;;;;;;4899834;29;45611;-67
2022/09/18 05:38:22;;;;;;;;;2.00;2.00;;;;;;;;4900266;28;45510;-68
2022/09/18 05:40:47;;;;;;;;;1.00;1.00;;;;;;;;4899809;28;45376;-67
2022/09/18 05:43:13;;;;;;;;;4.00;4.00;;;;;;;;4899929;28;46461;-67
2022/09/18 05:45:38;;;;;;;;;1.00;1.00;;;;;;;;4900076;28;45427;-67
2022/09/18 05:48:04;;;;;;;;;2.33;2.00;;;;;;;;4898891;28;45515;-68
2022/09/18 05:50:30;;;;;;;;;1.00;1.00;;;;;;;;4899766;28;45401;-68
2022/09/18 05:53:12;;;;;;;;;2.00;1.33;;;;;;;;4899712;28;45381;-67
2022/09/18 05:55:37;;;;;;;;;1.00;1.00;;;;;;;;4899673;28;45379;-68
2022/09/18 05:58:04;;;;;;;;;3.75;2.00;;;;;;;;4899766;28;45468;-68
2022/09/18 06:00:30;;;;;;;;;2.00;2.00;;;;;;;;4899559;28;45427;-68
2022/09/18 06:02:59;;;;;;;;;2.67;2.00;;;;;;;;4899535;28;46381;-68
2022/09/18 06:05:25;;;;;;;;;3.00;1.00;;;;;;;;4898657;29;45385;-67
2022/09/18 06:07:51;;;;;;;;;3.33;2.00;;;;;;;;4899511;28;45419;-67
2022/09/18 06:10:17;;;;;;;;;3.33;2.00;;;;;;;;4899610;28;45861;-67
2022/09/18 06:12:42;;;;;;;;;2.00;1.67;;;;;;;;4900029;29;46695;-68
2022/09/18 06:15:08;;;;;;;;;1.67;1.67;;;;;;;;4902825;28;45399;-68
2022/09/18 06:17:33;;;;;;;;;2.00;2.00;;;;;;;;4903219;28;45296;-68
2022/09/18 06:19:58;;;;;;;;;5.00;3.00;;;;;;;;4902809;29;45483;-67
2022/09/18 06:22:24;;;;;;;;;2.33;1.00;;;;;;;;4901132;28;46246;-68
2022/09/18 06:24:49;;;;;;;;;3.00;3.00;;;;;;;;4902907;29;45475;-68
2022/09/18 06:27:14;;;;;;;;;4.67;3.00;;;;;;;;4901958;29;46393;-67
2022/09/18 06:29:39;;;;;;;;;1.67;1.67;;;;;;;;4903246;29;45323;-68
2022/09/18 06:32:05;;;;;;;;;2.00;2.00;;;;;;;;4902192;29;45519;-68
2022/09/18 06:34:30;;;;;;;;;4.00;2.33;;;;;;;;4902526;29;45422;-68
2022/09/18 06:36:55;;;;;;;;;1.25;1.25;;;;;;;;4902834;28;45443;-67
2022/09/18 06:39:20;;;;;;;;;7.00;4.67;;;;;;;;4901828;29;45426;-68
2022/09/18 06:41:46;;;;;;;;;3.00;2.00;;;;;;;;4902041;29;47063;-68
2022/09/18 06:44:11;;;;;;;;;4.67;3.67;;;;;;;;4902619;29;45776;-68
2022/09/18 06:46:36;;;;;;;;;2.00;2.00;;;;;;;;4902590;29;45380;-68
2022/09/18 06:49:02;;;;;;;;;2.67;2.00;;;;;;;;4902707;29;45569;-68
2022/09/18 06:51:27;;;;;;;;;2.00;2.00;;;;;;;;4902280;29;47637;-68
2022/09/18 06:53:52;;;;;;;;;3.67;2.00;;;;;;;;4901425;28;45329;-68
2022/09/18 06:56:17;;;;;;;;;2.00;2.00;;;;;;;;4901418;29;45404;-68
2022/09/18 06:58:43;;;;;;;;;3.67;2.33;;;;;;;;4902736;29;45473;-67
2022/09/18 07:01:08;;;;;;;;;2.33;2.33;;;;;;;;4902174;29;46323;-68
2022/09/18 07:03:33;;;;;;;;;2.33;2.33;;;;;;;;4901884;29;45601;-67
2022/09/18 07:05:58;;;;;;;;;2.67;2.67;;;;;;;;4902212;29;45403;-68
2022/09/18 07:08:23;;;;;;;;;4.00;4.00;;;;;;;;4902423;28;45326;-67
2022/09/18 07:10:48;;;;;;;;;2.00;2.00;;;;;;;;4901138;29;45605;-68
2022/09/18 07:13:14;;;;;;;;;2.00;2.00;;;;;;;;4901763;29;45809;-68
2022/09/18 07:15:39;;;;;;;;;2.00;2.00;;;;;;;;4902187;29;45396;-68
2022/09/18 07:18:06;;;;;;;;;1.00;1.00;;;;;;;;4900932;29;45642;-68
2022/09/18 07:20:32;;;;;;;;;1.67;1.67;;;;;;;;4901571;28;46732;-68
2022/09/18 07:22:58;;;;;;;;;5.67;3.00;;;;;;;;4901873;28;45448;-67
2022/09/18 07:25:26;;;;;;;;;3.00;1.00;;;;;;;;4900988;28;45434;-68
2022/09/18 07:27:51;;;;;;;;;5.67;3.00;;;;;;;;4900206;28;45742;-67
2022/09/18 07:30:16;;;;;;;;;4.67;3.00;;;;;;;;4901850;28;45350;-67
2022/09/18 07:32:42;;;;;;;;;2.00;2.00;;;;;;;;4901672;28;45436;-67
2022/09/18 07:35:07;;;;;;;;;1.67;1.67;;;;;;;;4901478;28;45381;-67
2022/09/18 07:37:33;;;;;;;;;3.00;3.00;;;;;;;;4901991;28;45639;-67
2022/09/18 07:39:58;;;;;;;;;3.00;2.00;;;;;;;;4901408;29;46430;-67
2022/09/18 07:42:24;;;;;;;;;4.00;3.00;;;;;;;;4901879;29;45673;-67
2022/09/18 07:44:49;;;;;;;;;2.00;2.00;;;;;;;;4900143;29;45325;-67
2022/09/18 07:47:14;;;;;;;;;2.00;2.00;;;;;;;;4902044;29;45388;-67
2022/09/18 07:49:39;;;;;;;;;2.00;2.00;;;;;;;;4901201;29;46422;-67
2022/09/18 07:52:05;;;;;;;;;5.00;2.00;;;;;;;;4901238;28;45678;-67
2022/09/18 07:54:30;;;;;;;;;5.00;3.00;;;;;;;;4901916;28;45355;-68
2022/09/18 07:56:56;;;;;;;;;3.00;1.00;;;;;;;;4901326;29;45306;-68
2022/09/18 07:59:21;;;;;;;;;1.00;1.00;;;;;;;;4901367;29;45520;-68
2022/09/18 08:01:47;;;;;;;;;3.33;3.33;;;;;;;;4900056;29;45476;-67
2022/09/18 08:04:12;;;;;;;;;1.00;1.00;;;;;;;;4901481;29;45508;-67
2022/09/18 08:06:37;;;;;;;;;3.00;3.00;;;;;;;;4901124;28;45677;-67
2022/09/18 08:09:02;;;;;;;;;2.33;2.00;;;;;;;;4901088;29;46118;-67
2022/09/18 08:11:27;;;;;;;;;3.00;2.67;;;;;;;;4901299;29;45735;-67
2022/09/18 08:13:53;;;;;;;;;1.67;1.67;;;;;;;;4900392;29;45413;-67
2022/09/18 08:16:20;;;;;;;;;1.67;1.67;;;;;;;;4898326;29;45587;-67
2022/09/18 08:18:45;;;;;;;;;2.67;2.67;;;;;;;;4901139;29;46557;-67
2022/09/18 08:21:10;;;;;;;;;2.67;1.33;;;;;;;;4900541;28;45392;-68
2022/09/18 08:23:36;;;;;;;;;30.33;30.00;;;;;;;;4901325;29;45353;-67
2022/09/18 08:26:02;;;;;;;;;2.67;2.00;;;;;;;;4901163;29;45387;-67
2022/09/18 08:28:27;;;;;;;;;2.33;1.67;;;;;;;;4899281;29;45819;-67
2022/09/18 08:30:53;;;;;;;;;3.00;1.67;;;;;;;;4901065;29;45363;-67
2022/09/18 08:33:18;;;;;;;;;2.33;2.33;;;;;;;;4900248;28;45387;-67
2022/09/18 08:35:43;;;;;;;;;3.25;1.25;;;;;;;;4900415;29;45432;-67
2022/09/18 08:38:10;;;;;;;;;2.33;1.00;;;;;;;;4899541;29;46930;-68
2022/09/18 08:40:41;;;;;;;;;0.50;0.50;;;;;;;;4900655;28;45465;-68
2022/09/18 08:43:07;;;;;;;;;0.25;0.25;;;;;;;;4901116;29;45723;-67
2022/09/18 08:45:40;;;;;;;;;2.67;0.33;;;;;;;;4901050;29;45437;-67
2022/09/18 08:48:11;;;;;;;;;0.67;0.67;;;;;;;;4899104;28;45400;-67
2022/09/18 08:50:39;;;;;;;;;2.00;2.00;;;;;;;;4900524;28;45432;-67
2022/09/18 08:53:33;;;;;;;;;0.67;0.67;;;;;;;;4900694;28;45503;-67
2022/09/18 08:56:00;;;;;;;;;1.25;0.50;;;;;;;;4842062;29;45432;-67
2022/09/18 08:58:39;;;;;;;;;2.33;0.67;;;;;;;;4841633;29;46989;-68
2022/09/18 09:01:06;;;;;;;;;0.67;0.67;;;;;;;;4842228;29;45413;-68
2022/09/18 09:03:51;;;;;;;;;1.00;0.75;;;;;;;;4842286;29;45452;-72
2022/09/18 09:06:35;;;;;;;;;2.67;0.67;;;;;;;;4860379;29;45424;-67
2022/09/18 09:09:00;;;;;;;;;0.33;0.33;;;;;;;;4836115;29;46118;-67
2022/09/18 09:11:25;;;;;;;;;2.00;0.67;;;;;;;;4842007;29;45492;-68
2022/09/18 09:13:54;;;;;;;;;3.50;0.25;;;;;;;;4841915;29;45623;-67
2022/09/18 09:16:25;;;;;;;;;1.67;1.67;;;;;;;;4827541;29;45463;-67
2022/09/18 09:18:56;;;;;;;;;0.67;0.67;;;;;;;;4823007;29;45481;-66
2022/09/18 09:21:23;;;;;;;;;1.33;1.00;;;;;;;;4823121;29;45421;-68
2022/09/18 09:23:48;;;;;;;;;0.67;0.67;;;;;;;;4823506;29;45426;-67
2022/09/18 09:26:16;;;;;;;;;0.67;0.67;;;;;;;;4833792;29;45525;-68
2022/09/18 09:28:54;;;;;;;;;1.00;0.75;;;;;;;;4841499;29;46681;-67
2022/09/18 09:31:22;;;;;;;;;1.75;0.75;;;;;;;;4848248;28;45621;-67
2022/09/18 09:34:03;;;;;;;;;1.00;1.00;;;;;;;;4918586;28;45916;-68
2022/09/18 09:36:29;;;;;;;;;1.67;0.67;;;;;;;;4905948;28;45440;-67
2022/09/18 09:39:06;;;;;;;;;0.67;0.67;;;;;;;;4906136;28;45560;-69
2022/09/18 09:41:31;;;;;;;;;1.67;0.67;;;;;;;;4905544;28;45504;-68
2022/09/18 09:43:57;;;;;;;;;1.75;1.00;;;;;;;;4908333;28;45635;-68
2022/09/18 09:46:35;;;;;;;;;1.00;1.00;;;;;;;;4902284;28;45247;-68
2022/09/18 09:49:05;;;;;;;;;1.00;1.00;;;;;;;;4899513;29;45423;-67
2022/09/18 09:51:34;;;;;;;;;0.33;0.33;;;;;;;;4897352;28;46171;-68
2022/09/18 09:54:00;;;;;;;;;2.00;2.00;;;;;;;;4900002;28;45404;-69
2022/09/18 09:56:35;;;;;;;;;1.00;1.00;;;;;;;;4900121;29;45457;-69
2022/09/18 09:59:19;;;;;;;;;1.00;1.00;;;;;;;;4899599;29;45365;-68
2022/09/18 10:01:55;;;;;;;;;3.00;1.00;;;;;;;;4899291;29;45488;-69
2022/09/18 10:04:33;;;;;;;;;0.00;0.00;;;;;;;;4900076;29;45461;-69
2022/09/18 10:07:04;;;;;;;;;1.00;1.00;;;;;;;;4899355;28;45555;-69
2022/09/18 10:09:35;;;;;;;;;2.00;1.33;;;;;;;;4898470;29;46232;-68
2022/09/18 10:12:14;;;;;;;;;1.00;0.50;;;;;;;;4899102;29;45432;-69
2022/09/18 10:14:41;;;;;;;;;1.33;1.33;;;;;;;;4899551;29;45490;-68
2022/09/18 10:17:09;;;;;;;;;1.00;1.00;;;;;;;;4899647;29;45704;-68
2022/09/18 10:19:37;;;;;;;;;1.00;1.00;;;;;;;;4899137;29;46430;-70
2022/09/18 10:22:06;;;;;;;;;0.00;0.00;;;;;;;;4898644;28;45483;-69
2022/09/18 10:24:32;;;;;;;;;0.00;0.00;;;;;;;;4899661;28;45484;-69
2022/09/18 10:27:00;;;;;;;;;0.00;0.00;;;;;;;;4898964;29;45521;-70
2022/09/18 10:29:25;;;;;;;;;0.00;0.00;;;;;;;;4898475;28;46697;-69
2022/09/18 10:31:55;;;;;;;;;0.00;0.00;;;;;;;;4899142;29;45466;-68
2022/09/18 10:34:31;;;;;;;;;0.00;0.00;;;;;;;;4899065;28;45413;-69
2022/09/18 10:36:57;;;;;;;;;0.00;0.00;;;;;;;;4899558;28;45454;-69
2022/09/18 10:39:33;;;;;;;;;0.00;0.00;;;;;;;;4899057;29;46561;-68
2022/09/18 10:41:59;;;;;;;;;1.00;1.00;;;;;;;;4898524;28;45477;-69
2022/09/18 10:44:39;;;;;;;;;0.00;0.00;;;;;;;;4899184;29;45426;-70
2022/09/18 10:47:09;;;;;;;;;0.00;0.00;;;;;;;;4899297;29;45628;-68
2022/09/18 10:49:39;;;;;;;;;0.00;0.00;;;;;;;;4899031;28;45428;-71
2022/09/18 10:52:18;;;;;;;;;1.67;0.00;;;;;;;;4899052;28;45289;-69
2022/09/18 10:55:04;;;;;;;;;1.00;1.00;;;;;;;;4899021;29;45392;-69
2022/09/18 10:57:33;;;;;;;;;31.33;31.00;;;;;;;;4897702;28;45614;-69
2022/09/18 10:59:58;;;;;;;;;2.33;1.00;;;;;;;;4899576;29;45326;-70
2022/09/18 11:02:30;;;;;;;;;0.00;0.00;;;;;;;;4902397;28;45402;-69
2022/09/18 11:04:55;;;;;;;;;1.33;1.00;;;;;;;;4902145;28;45419;-69
2022/09/18 11:07:23;;;;;;;;;0.00;0.00;;;;;;;;4902354;29;45369;-69
2022/09/18 11:09:49;;;;;;;;;1.00;0.00;;;;;;;;4902144;28;47423;-69
2022/09/18 11:12:22;;;;;;;;;1.00;1.00;;;;;;;;4902128;28;45464;-69
2022/09/18 11:14:50;;;;;;;;;0.67;0.67;;;;;;;;4900784;28;45436;-69
2022/09/18 11:17:20;;;;;;;;;0.00;0.00;;;;;;;;4902416;28;45483;-70
2022/09/18 11:19:48;;;;;;;;;0.00;0.00;;;;;;;;4901713;28;46426;-69
2022/09/18 11:22:36;;;;;;;;;1.67;0.00;;;;;;;;4901549;28;45439;-69
2022/09/18 11:25:19;;;;;;;;;1.33;1.00;;;;;;;;4901684;28;45353;-69
2022/09/18 11:27:46;;;;;;;;;1.00;1.00;;;;;;;;4900777;29;45501;-69
2022/09/18 11:30:12;;;;;;;;;0.67;0.67;;;;;;;;4900267;29;45341;-69
2022/09/18 11:32:38;;;;;;;;;1.33;1.33;;;;;;;;4901586;29;45692;-68
2022/09/18 11:35:04;;;;;;;;;0.00;0.00;;;;;;;;4902039;28;45437;-69
2022/09/18 11:37:37;;;;;;;;;1.67;1.00;;;;;;;;4901445;28;46016;-68
2022/09/18 11:40:07;;;;;;;;;0.00;0.00;;;;;;;;4900641;28;46177;-69
2022/09/18 11:42:40;;;;;;;;;0.33;0.33;;;;;;;;4901815;28;45255;-69
2022/09/18 11:45:17;;;;;;;;;0.00;0.00;;;;;;;;4902007;28;45417;-68
2022/09/18 11:47:46;;;;;;;;;0.00;0.00;;;;;;;;4900293;28;45362;-68
2022/09/18 11:50:15;;;;;;;;;1.00;1.00;;;;;;;;4901416;28;46452;-69
2022/09/18 11:52:53;;;;;;;;;1.00;1.00;;;;;;;;4901417;29;45390;-72
2022/09/18 11:55:28;;;;;;;;;1.00;1.00;;;;;;;;4901828;29;45475;-73
2022/09/18 11:58:00;;;;;;;;;0.00;0.00;;;;;;;;4901172;28;45367;-72
2022/09/18 12:00:28;;;;;;;;;1.00;1.00;;;;;;;;4901270;28;46289;-71
2022/09/18 12:03:01;;;;;;;;;0.00;0.00;;;;;;;;4900154;28;45346;-70
2022/09/18 12:05:32;;;;;;;;;0.00;0.00;;;;;;;;4901669;28;45376;-72
2022/09/18 12:08:16;;;;;;;;;0.00;0.00;;;;;;;;4901090;28;45630;-76
2022/09/18 12:10:59;;;;;;;;;0.33;0.00;;;;;;;;4900924;28;47399;-75
2022/09/18 12:13:45;;;;;;;;;2.00;0.33;;;;;;;;4901407;28;45468;-73
2022/09/18 12:16:10;;;;;;;;;20.67;13.00;;;;;;;;4901279;28;45326;-73
2022/09/18 12:18:48;;;;;;;;;2.67;2.00;;;;;;;;4901039;29;45532;-78
2022/09/18 12:21:16;;;;;;;;;1.00;1.00;;;;;;;;4900105;28;45592;-75
2022/09/18 12:23:41;;;;;;;;;2.00;0.00;;;;;;;;4901137;28;45530;-69
2022/09/18 12:26:11;;;;;;;;;0.00;0.00;;;;;;;;4900885;29;45357;-72
2022/09/18 12:28:45;;;;;;;;;1.00;1.00;;;;;;;;4900053;28;45587;-71
2022/09/18 12:31:15;;;;;;;;;1.00;1.00;;;;;;;;4900995;29;46231;-68
2022/09/18 12:33:54;;;;;;;;;2.00;2.00;;;;;;;;4900798;28;45718;-68
2022/09/18 12:36:40;;;;;;;;;1.00;1.00;;;;;;;;4900076;28;45436;-69
2022/09/18 12:39:05;;;;;;;;;1.00;1.00;;;;;;;;4900648;28;45376;-67
2022/09/18 12:41:49;;;;;;;;;1.00;1.00;;;;;;;;4899189;29;45636;-67
2022/09/18 12:44:20;;;;;;;;;1.00;1.00;;;;;;;;4900970;28;45591;-69
2022/09/18 12:47:01;;;;;;;;;2.00;1.00;;;;;;;;4900029;29;46270;-66
2022/09/18 12:49:32;;;;;;;;;0.00;0.00;;;;;;;;4900554;29;45346;-71
2022/09/18 12:52:15;;;;;;;;;0.67;0.67;;;;;;;;4900465;29;45511;-71
2022/09/18 12:54:55;;;;;;;;;0.00;0.00;;;;;;;;4899732;28;45496;-70
2022/09/18 12:57:26;;;;;;;;;1.50;1.00;;;;;;;;4900640;28;45656;-69
2022/09/18 13:00:07;;;;;;;;;0.00;0.00;;;;;;;;4888686;29;45469;-72
2022/09/18 13:02:33;;;;;;;;;0.00;0.00;;;;;;;;4881607;29;45424;-68
2022/09/18 13:05:04;;;;;;;;;0.00;0.00;;;;;;;;4881394;29;45609;-67
2022/09/18 13:07:33;;;;;;;;;2.00;0.00;;;;;;;;4881486;29;45536;-67
2022/09/18 13:10:05;;;;;;;;;0.00;0.00;;;;;;;;4884829;29;45422;-70
2022/09/18 13:12:35;;;;;;;;;0.00;0.00;;;;;;;;4900215;28;47105;-70
2022/09/18 13:15:09;;;;;;;;;0.00;0.00;;;;;;;;4900489;28;45448;-71
2022/09/18 13:17:36;;;;;;;;;0.00;0.00;;;;;;;;4900651;28;45394;-70
2022/09/18 13:20:04;;;;;;;;;2.67;2.67;;;;;;;;4900153;28;45371;-68
2022/09/18 13:22:33;;;;;;;;;0.00;0.00;;;;;;;;4911136;28;47174;-67
2022/09/18 13:24:59;;;;;;;;;0.25;0.00;;;;;;;;4919539;28;45448;-68
2022/09/18 13:27:25;;;;;;;;;1.00;1.00;;;;;;;;4918502;28;45587;-72
2022/09/18 13:29:50;;;;;;;;;0.00;0.00;;;;;;;;4918519;28;45377;-71
2022/09/18 13:32:21;;;;;;;;;1.00;1.00;;;;;;;;4918742;28;47072;-68
2022/09/18 13:35:18;;;;;;;;;0.25;0.25;;;;;;;;4919155;28;45342;-68
2022/09/18 13:37:44;;;;;;;;;0.00;0.00;;;;;;;;4860176;29;45460;-69
2022/09/18 13:40:25;;;;;;;;;0.50;0.00;;;;;;;;4860421;29;45458;-73
2022/09/18 13:42:50;;;;;;;;;0.00;0.00;;;;;;;;4858560;29;47299;-70
2022/09/18 13:45:15;;;;;;;;;0.67;0.33;;;;;;;;4860282;29;45437;-71
2022/09/18 13:47:56;;;;;;;;;1.00;1.00;;;;;;;;4860453;29;45632;-70
2022/09/18 13:50:21;;;;;;;;;0.00;0.00;;;;;;;;4860587;29;45573;-71
2022/09/18 13:52:54;;;;;;;;;0.00;0.00;;;;;;;;4859215;29;46528;-70
2022/09/18 13:55:21;;;;;;;;;2.00;1.00;;;;;;;;4859942;29;45467;-68
2022/09/18 13:57:47;;;;;;;;;1.00;0.25;;;;;;;;4858768;29;45556;-69
2022/09/18 14:00:18;;;;;;;;;1.00;1.00;;;;;;;;4859249;29;45425;-70
2022/09/18 14:02:43;;;;;;;;;0.00;0.00;;;;;;;;4860821;29;46533;-71
2022/09/18 14:05:20;;;;;;;;;0.00;0.00;;;;;;;;4861157;29;45546;-72
2022/09/18 14:07:52;;;;;;;;;1.00;1.00;;;;;;;;4861163;29;45435;-68
2022/09/18 14:10:25;;;;;;;;;0.25;0.25;;;;;;;;4860167;29;45773;-69
2022/09/18 14:13:22;;;;;;;;;1.00;1.00;;;;;;;;4872497;29;46463;-73
2022/09/18 14:15:56;;;;;;;;;0.67;0.67;;;;;;;;4900342;28;45524;-74
2022/09/18 14:18:27;;;;;;;;;2.00;1.00;;;;;;;;4920021;28;45333;-64
2022/09/18 14:20:55;;;;;;;;;0.00;0.00;;;;;;;;4919707;28;45407;-67
2022/09/18 14:23:33;;;;;;;;;3.00;0.00;;;;;;;;4919172;28;45508;-67
2022/09/18 14:25:58;;;;;;;;;11.00;11.00;;;;;;;;4919692;28;45350;-67
2022/09/18 14:28:24;;;;;;;;;0.00;0.00;;;;;;;;4919590;28;45429;-68
2022/09/18 14:31:11;;;;;;;;;0.67;0.00;;;;;;;;4919888;28;45461;-68
2022/09/18 14:33:37;;;;;;;;;0.00;0.00;;;;;;;;4911727;28;46620;-68
2022/09/18 14:36:04;;;;;;;;;0.00;0.00;;;;;;;;4922049;28;45328;-68
2022/09/18 14:38:32;;;;;;;;;0.00;0.00;;;;;;;;4922952;28;45799;-68
2022/09/18 14:41:01;;;;;;;;;0.00;0.00;;;;;;;;4922877;28;45347;-68
2022/09/18 14:43:27;;;;;;;;;0.25;0.00;;;;;;;;4922861;28;46115;-67
2022/09/18 14:45:52;;;;;;;;;0.00;0.00;;;;;;;;4922805;28;45290;-68
2022/09/18 14:48:24;;;;;;;;;0.00;0.00;;;;;;;;4921841;28;45572;-68
2022/09/18 14:50:57;;;;;;;;;0.33;0.00;;;;;;;;4921966;28;45485;-68
2022/09/18 14:53:24;;;;;;;;;0.00;0.00;;;;;;;;4922175;28;46081;-68